createdAt,value
2023-04-27T00:04:38.683Z,99811.96
2023-04-27T00:14:42.664Z,99815.58
2023-04-27T00:24:46.433Z,99820.18
2023-04-27T00:35:42.765Z,99827.27
2023-04-27T00:45:47.520Z,99829.52
2023-04-27T00:56:33.927Z,99836.08
2023-04-27T01:06:37.820Z,99844.34
2023-04-27T01:17:01.899Z,99847.72
2023-04-27T01:27:05.750Z,99852.19
2023-04-27T01:37:19.320Z,99852.84
2023-04-27T01:47:24.995Z,99852.64
2023-04-27T01:57:28.649Z,99861.30
2023-04-27T02:07:32.485Z,99866.68
2023-04-27T02:17:40.288Z,99869.55
2023-04-27T02:27:44.436Z,99869.02
2023-04-27T02:37:48.653Z,99867.35
2023-04-27T02:48:32.927Z,99868.79
2023-04-27T02:59:18.982Z,99884.83
2023-04-27T03:09:22.918Z,99893.28
2023-04-27T03:19:30.927Z,99893.52
2023-04-27T03:29:34.630Z,99900.83
2023-04-27T03:40:39.352Z,99902.27
2023-04-27T03:50:44.474Z,99902.20
2023-04-27T04:01:49.109Z,99914.95
2023-04-27T04:12:15.621Z,99914.05
2023-04-27T04:22:20.883Z,99914.90
2023-04-27T04:32:25.153Z,99920.19
2023-04-27T04:42:30.332Z,99921.77
2023-04-27T04:53:35.062Z,99915.33
2023-04-27T05:03:39.052Z,99927.15
2023-04-27T05:13:42.827Z,99928.14
2023-04-27T05:23:47.066Z,99943.72
2023-04-27T05:33:53.478Z,99947.88
2023-04-27T05:43:57.168Z,99955.13
2023-04-27T05:54:02.242Z,99960.71
2023-04-27T06:04:05.916Z,99962.73
2023-04-27T06:14:11.571Z,99969.14
2023-04-27T06:24:18.640Z,99973.65
2023-04-27T06:34:23.449Z,99977.47
2023-04-27T06:44:27.075Z,99973.43
2023-04-27T06:54:33.631Z,99976.26
2023-04-27T07:04:38.605Z,99978.35
2023-04-27T07:14:43.596Z,99988.98
2023-04-27T07:24:47.795Z,99987.66
2023-04-27T07:34:54.559Z,99989.02
2023-04-27T07:44:59.520Z,99992.73
2023-04-27T07:55:24.241Z,99993.13
2023-04-27T08:05:38.541Z,100000.08
2023-04-27T08:15:44.592Z,100000.42
2023-04-27T08:25:49.587Z,100005.23
2023-04-27T08:35:58.281Z,100007.88
2023-04-27T08:47:02.194Z,100005.52
2023-04-27T08:57:17.030Z,100005.27
2023-04-27T09:07:20.982Z,100018.86
2023-04-27T09:17:29.114Z,100023.70
2023-04-27T09:27:44.036Z,100022.59
2023-04-27T09:37:50.990Z,100014.59
2023-04-27T09:47:56.669Z,100013.71
2023-04-27T09:58:09.983Z,100003.91
2023-04-27T10:08:16.092Z,100022.81
2023-04-27T10:18:57.006Z,100038.48
2023-04-27T10:29:09.112Z,100036.62
2023-04-27T10:39:19.139Z,100032.10
2023-04-27T10:49:29.947Z,100037.59
2023-04-27T10:59:37.332Z,100035.16
2023-04-27T11:09:44.505Z,100028.27
2023-04-27T11:19:51.877Z,100058.80
2023-04-27T11:29:55.960Z,100073.43
2023-04-27T11:40:00.947Z,100065.88
2023-04-27T11:50:10.846Z,100060.86
2023-04-27T12:00:20.075Z,100065.82
2023-04-27T12:10:23.599Z,100078.34
2023-04-27T12:20:31.092Z,100070.61
2023-04-27T12:30:36.758Z,100075.24
2023-04-27T12:41:20.503Z,100078.23
2023-04-27T12:52:25.352Z,100074.74
2023-04-27T13:02:31.487Z,100080.30
2023-04-27T13:12:37.097Z,100093.23
2023-04-27T13:22:42.839Z,100103.66
2023-04-27T13:32:46.450Z,100106.17
2023-04-27T13:42:53.201Z,100100.41
2023-04-27T13:52:57.062Z,100108.67
2023-04-27T14:03:04.702Z,100122.86
2023-04-27T14:13:08.743Z,100138.98
2023-04-27T14:23:13.934Z,100157.34
2023-04-27T14:33:17.704Z,100162.80
2023-04-27T14:43:23.569Z,100152.69
2023-04-27T14:53:27.376Z,100166.85
2023-04-27T15:03:32.935Z,100167.20
2023-04-27T15:13:41.652Z,100171.77
2023-04-27T15:23:45.633Z,100182.67
2023-04-27T15:33:49.355Z,100189.21
2023-04-27T15:43:54.340Z,100198.03
2023-04-27T15:53:58.081Z,100219.10
2023-04-27T16:04:01.785Z,100201.67
2023-04-27T16:14:05.948Z,100194.77
2023-04-27T16:24:10.876Z,100198.11
2023-04-27T16:34:14.505Z,100199.94
2023-04-27T16:44:18.353Z,100199.63
2023-04-27T16:54:22.241Z,100197.07
2023-04-27T17:04:27.269Z,100202.19
2023-04-27T17:14:30.997Z,100213.16
2023-04-27T17:24:36.111Z,100214.15
2023-04-27T17:34:42.450Z,100218.61
2023-04-27T17:44:49.168Z,100235.73
2023-04-27T17:54:52.709Z,100265.35
2023-04-27T18:04:57.074Z,100267.30
2023-04-27T18:15:04.414Z,100280.02
2023-04-27T18:25:53.170Z,100280.47
2023-04-27T18:35:57.796Z,100289.89
2023-04-27T18:46:05.039Z,100301.97
2023-04-27T18:56:14.904Z,100299.60
2023-04-27T19:06:21.492Z,100295.77
2023-04-27T19:16:36.455Z,100300.55
2023-04-27T19:26:40.972Z,100304.85
2023-04-27T19:36:47.217Z,100303.85
2023-04-27T19:46:53.041Z,100306.21
2023-04-27T19:56:57.166Z,100300.64
2023-04-27T20:07:05.042Z,100306.23
2023-04-27T20:17:13.130Z,100308.98
2023-04-27T20:27:18.196Z,100308.48
2023-04-27T20:37:25.313Z,100307.02
2023-04-27T20:47:31.989Z,100309.98
2023-04-27T20:57:35.816Z,100317.09
2023-04-27T21:07:39.468Z,100323.81
2023-04-27T21:17:47.223Z,100330.03
2023-04-27T21:27:50.951Z,100339.52
2023-04-27T21:37:56.158Z,100336.81
2023-04-27T21:48:01.740Z,100333.35
2023-04-27T21:58:47.322Z,100347.52
2023-04-27T22:08:54.506Z,100352.42
2023-04-27T22:18:58.052Z,100351.23
2023-04-27T22:29:01.685Z,100351.73
2023-04-27T22:39:06.134Z,100355.19
2023-04-27T22:49:12.857Z,100349.90
2023-04-27T22:59:24.396Z,100351.45
2023-04-27T23:09:28.126Z,100350.81
2023-04-27T23:19:31.850Z,100349.23
2023-04-27T23:29:37.500Z,100347.39
2023-04-27T23:39:41.143Z,100346.07
2023-04-27T23:49:48.496Z,100352.94
2023-04-27T23:59:52.127Z,100354.86
